Time;durP1;ratioP1;P1;durP2;ratioP2;P2;SDS_P1;SDS_P2;PMS_P1;PMS_P2;Temp;Humidity;BMP_temperature;BMP_pressure;BME280_temperature;BME280_humidity;BME280_pressure;Samples;Min_cycle;Max_cycle;Signal;HPM_P1;HPM_P2
2022/03/11 00:01:06;;;;;;;0.73;0.17;;;6.10;68.20;;;;;;5052889;28;20128;-81
2022/03/11 00:03:33;;;;;;;1.23;0.70;;;6.10;68.70;;;;;;5036262;28;20045;-80
2022/03/11 00:05:59;;;;;;;1.95;0.90;;;6.10;69.30;;;;;;5052315;28;20562;-81
2022/03/11 00:08:24;;;;;;;0.43;0.43;;;6.00;69.40;;;;;;5052486;28;20088;-80
2022/03/11 00:10:51;;;;;;;0.38;0.38;;;5.90;69.30;;;;;;5052425;28;20052;-81
2022/03/11 00:13:17;;;;;;;2.97;0.30;;;5.90;69.70;;;;;;5052770;28;20045;-81
2022/03/11 00:15:42;;;;;;;0.30;0.00;;;5.90;69.10;;;;;;5052465;28;20048;-80
2022/03/11 00:18:08;;;;;;;2.63;0.38;;;5.80;69.80;;;;;;5035478;28;20084;-81
2022/03/11 00:20:34;;;;;;;0.57;0.57;;;5.70;69.70;;;;;;5036275;28;20088;-82
2022/03/11 00:23:00;;;;;;;0.20;0.20;;;5.70;69.80;;;;;;5035878;28;20056;-82
2022/03/11 00:25:26;;;;;;;1.88;0.40;;;5.60;70.20;;;;;;5035868;28;20052;-81
2022/03/11 00:27:51;;;;;;;0.15;0.15;;;5.60;69.70;;;;;;5052577;28;20051;-81
2022/03/11 00:30:17;;;;;;;0.55;0.55;;;5.80;70.60;;;;;;5052510;28;20489;-81
2022/03/11 00:32:45;;;;;;;0.80;0.63;;;5.50;70.00;;;;;;5052455;28;20052;-81
2022/03/11 00:35:12;;;;;;;0.00;0.00;;;5.50;70.60;;;;;;5052263;28;20048;-81
2022/03/11 00:37:39;;;;;;;2.38;0.38;;;5.50;70.30;;;;;;5035968;28;20053;-81
2022/03/11 00:40:06;;;;;;;0.45;0.45;;;5.50;70.40;;;;;;5052236;28;20378;-81
2022/03/11 00:42:31;;;;;;;0.10;0.10;;;5.40;70.80;;;;;;5052529;28;20441;-81
2022/03/11 00:44:57;;;;;;;0.88;0.32;;;5.30;71.10;;;;;;5055728;28;20076;-81
2022/03/11 00:47:23;;;;;;;0.40;0.30;;;5.30;70.70;;;;;;5039718;28;20114;-81
2022/03/11 00:49:48;;;;;;;0.50;0.50;;;5.30;70.90;;;;;;5056621;28;20454;-81
2022/03/11 00:52:14;;;;;;;1.10;0.25;;;5.30;71.30;;;;;;5056999;28;20104;-81
2022/03/11 00:54:40;;;;;;;7.88;0.22;;;5.20;71.40;;;;;;5056556;28;20049;-81
2022/03/11 00:57:08;;;;;;;0.20;0.20;;;5.20;71.70;;;;;;5056469;28;20059;-80
2022/03/11 00:59:33;;;;;;;0.55;0.55;;;5.10;71.70;;;;;;5056159;28;20044;-81
2022/03/11 01:01:59;;;;;;;0.32;0.32;;;5.10;71.60;;;;;;5039600;28;20057;-81
2022/03/11 01:04:27;;;;;;;0.28;0.28;;;5.10;71.50;;;;;;5056488;28;20045;-81
2022/03/11 01:06:53;;;;;;;0.63;0.52;;;5.10;71.90;;;;;;5056101;28;20052;-81
2022/03/11 01:09:21;;;;;;;1.48;0.38;;;5.00;72.80;;;;;;5039491;28;20053;-81
2022/03/11 01:11:50;;;;;;;1.25;0.75;;;5.00;72.70;;;;;;5056438;28;20053;-81
2022/03/11 01:14:15;;;;;;;0.80;0.57;;;5.00;72.60;;;;;;5056073;28;20123;-81
2022/03/11 01:16:41;;;;;;;0.03;0.03;;;5.00;73.20;;;;;;5055785;28;20052;-80
2022/03/11 01:19:07;;;;;;;0.10;0.00;;;5.00;73.50;;;;;;5055818;28;20472;-81
2022/03/11 01:21:32;;;;;;;1.08;0.73;;;5.00;73.80;;;;;;5055839;28;20045;-80
2022/03/11 01:24:01;;;;;;;0.47;0.20;;;5.00;74.20;;;;;;5055529;28;20041;-81
2022/03/11 01:26:26;;;;;;;0.15;0.15;;;5.00;73.60;;;;;;5055666;28;20056;-81
2022/03/11 01:28:53;;;;;;;0.43;0.28;;;5.00;74.50;;;;;;5055899;28;20045;-81
2022/03/11 01:31:19;;;;;;;0.88;0.05;;;5.00;74.80;;;;;;5055875;28;20045;-81
2022/03/11 01:33:47;;;;;;;0.95;0.95;;;4.90;74.70;;;;;;5055742;28;20048;-81
2022/03/11 01:36:14;;;;;;;0.08;0.08;;;4.90;75.20;;;;;;5039340;28;20061;-81
2022/03/11 01:38:40;;;;;;;0.00;0.00;;;4.80;75.50;;;;;;5055872;28;20045;-81
2022/03/11 01:41:06;;;;;;;2.65;0.43;;;4.80;75.70;;;;;;5055826;28;20041;-81
2022/03/11 01:43:53;;;;;;;0.20;0.13;;;4.80;76.00;;;;;;5038765;28;20199;-81
2022/03/11 01:46:19;;;;;;;0.10;0.10;;;4.80;76.10;;;;;;5056062;28;20045;-81
2022/03/11 01:48:45;;;;;;;0.43;0.43;;;4.70;76.60;;;;;;5055308;28;20103;-81
2022/03/11 01:51:10;;;;;;;0.57;0.35;;;4.70;76.80;;;;;;5038784;28;20080;-80
2022/03/11 01:53:36;;;;;;;0.20;0.20;;;4.80;77.40;;;;;;5038757;28;20049;-81
2022/03/11 01:56:03;;;;;;;1.42;0.15;;;4.70;77.20;;;;;;5037940;28;20049;-81
2022/03/11 01:58:30;;;;;;;1.13;1.02;;;4.70;77.30;;;;;;5038384;28;20053;-81
2022/03/11 02:00:56;;;;;;;0.20;0.20;;;4.70;77.80;;;;;;5055168;28;20454;-81
2022/03/11 02:03:24;;;;;;;0.70;0.25;;;4.70;77.90;;;;;;5055207;28;20076;-81
2022/03/11 02:05:50;;;;;;;0.00;0.00;;;4.60;78.00;;;;;;5055248;28;20455;-81
2022/03/11 02:08:15;;;;;;;0.10;0.10;;;4.60;78.50;;;;;;5037997;28;20136;-80
2022/03/11 02:10:41;;;;;;;0.43;0.43;;;4.60;79.60;;;;;;5038299;28;20061;-81
2022/03/11 02:13:09;;;;;;;0.00;0.00;;;4.50;79.80;;;;;;5055047;28;20044;-81
2022/03/11 02:15:37;;;;;;;0.35;0.00;;;4.50;79.40;;;;;;5038299;28;20393;-81
2022/03/11 02:18:03;;;;;;;0.10;0.10;;;4.50;79.70;;;;;;5054881;28;20049;-81
2022/03/11 02:20:29;;;;;;;0.32;0.32;;;4.50;80.30;;;;;;5038095;28;20106;-80
2022/03/11 02:22:57;;;;;;;0.30;0.30;;;4.50;80.60;;;;;;5054775;28;20048;-81
2022/03/11 02:25:22;;;;;;;0.40;0.40;;;4.50;80.40;;;;;;5054678;28;20053;-81
2022/03/11 02:27:48;;;;;;;0.73;0.52;;;4.50;81.50;;;;;;5054897;28;20434;-81
2022/03/11 02:30:20;;;;;;;1.33;0.38;;;4.40;80.80;;;;;;5038635;28;20385;-80
2022/03/11 02:32:45;;;;;;;0.90;0.52;;;4.40;80.40;;;;;;5055384;28;20400;-80
2022/03/11 02:35:12;;;;;;;0.70;0.38;;;4.40;80.90;;;;;;5054692;28;20041;-80
2022/03/11 02:37:38;;;;;;;0.38;0.10;;;4.40;81.90;;;;;;5037858;28;20053;-80
2022/03/11 02:40:05;;;;;;;0.77;0.50;;;4.40;82.60;;;;;;5053973;28;20052;-81
2022/03/11 02:42:33;;;;;;;0.32;0.32;;;4.30;82.20;;;;;;5054590;28;20140;-81
2022/03/11 02:45:00;;;;;;;2.88;0.60;;;4.30;82.20;;;;;;5054474;28;20048;-81
2022/03/11 02:47:27;;;;;;;0.90;0.75;;;4.30;82.90;;;;;;5037915;28;20044;-81
2022/03/11 02:49:53;;;;;;;0.28;0.28;;;4.30;84.10;;;;;;5037703;28;20456;-81
2022/03/11 02:52:18;;;;;;;0.82;0.28;;;4.30;85.00;;;;;;5037583;28;20049;-81
2022/03/11 02:54:44;;;;;;;0.40;0.20;;;4.30;84.90;;;;;;5037656;28;20051;-81
2022/03/11 02:57:12;;;;;;;2.13;0.28;;;4.20;84.90;;;;;;5054224;28;20444;-81
2022/03/11 02:59:38;;;;;;;0.20;0.20;;;4.20;84.80;;;;;;5054332;28;20083;-81
2022/03/11 03:02:04;;;;;;;0.13;0.13;;;4.20;85.10;;;;;;5037141;28;20111;-81
2022/03/11 03:04:30;;;;;;;0.30;0.30;;;4.20;85.70;;;;;;5054068;28;20179;-81
2022/03/11 03:06:56;;;;;;;1.27;0.95;;;4.10;86.00;;;;;;5052662;28;20049;-81
2022/03/11 03:09:21;;;;;;;0.10;0.00;;;4.10;86.20;;;;;;5053012;28;20393;-81
2022/03/11 03:11:47;;;;;;;0.52;0.52;;;4.00;87.10;;;;;;5053412;28;20053;-81
2022/03/11 03:14:15;;;;;;;0.00;0.00;;;4.00;87.00;;;;;;5053900;28;20048;-81
2022/03/11 03:16:41;;;;;;;1.85;0.57;;;4.10;87.80;;;;;;5037238;28;20068;-81
2022/03/11 03:19:06;;;;;;;0.40;0.40;;;4.00;87.50;;;;;;5053479;28;20480;-81
2022/03/11 03:21:32;;;;;;;0.10;0.10;;;4.00;88.30;;;;;;5053701;28;20053;-81
2022/03/11 03:23:58;;;;;;;0.47;0.30;;;4.00;88.50;;;;;;5053923;28;20041;-81
2022/03/11 03:26:23;;;;;;;0.32;0.32;;;4.00;88.30;;;;;;5036884;28;20065;-81
2022/03/11 03:28:49;;;;;;;0.20;0.20;;;4.00;89.40;;;;;;5053261;28;20053;-81
2022/03/11 03:31:18;;;;;;;2.70;1.40;;;4.00;88.50;;;;;;5053547;28;20052;-81
2022/03/11 03:33:44;;;;;;;0.25;0.15;;;3.90;89.40;;;;;;5053579;28;20056;-81
2022/03/11 03:36:10;;;;;;;0.13;0.13;;;3.90;89.60;;;;;;5036800;28;20353;-81
2022/03/11 03:38:36;;;;;;;0.68;0.47;;;3.90;89.70;;;;;;5036424;28;20053;-81
2022/03/11 03:41:01;;;;;;;1.10;0.73;;;3.80;90.30;;;;;;5053226;28;20107;-81
2022/03/11 03:43:27;;;;;;;5.35;1.05;;;3.80;89.70;;;;;;5052956;28;20048;-81
2022/03/11 03:45:55;;;;;;;3.10;0.65;;;3.80;90.20;;;;;;5053217;28;20052;-81
2022/03/11 03:48:21;;;;;;;1.95;0.63;;;3.80;90.60;;;;;;5052730;28;20049;-81
2022/03/11 03:50:47;;;;;;;0.20;0.20;;;3.70;90.80;;;;;;5053135;28;20045;-81
2022/03/11 03:53:15;;;;;;;1.50;0.00;;;3.80;90.60;;;;;;5053173;28;20075;-81
2022/03/11 03:55:44;;;;;;;0.00;0.00;;;3.70;90.70;;;;;;5036543;28;20051;-81
2022/03/11 03:58:10;;;;;;;0.70;0.28;;;3.70;90.90;;;;;;5036405;28;20055;-81
2022/03/11 04:00:35;;;;;;;0.65;0.65;;;3.80;91.20;;;;;;5036401;28;20389;-81
2022/03/11 04:03:01;;;;;;;0.85;0.85;;;3.80;91.20;;;;;;5036348;28;20044;-81
2022/03/11 04:05:27;;;;;;;0.28;0.28;;;3.70;91.60;;;;;;5036539;28;20126;-81
2022/03/11 04:07:53;;;;;;;0.63;0.40;;;3.70;91.60;;;;;;5052223;28;20401;-81
2022/03/11 04:10:19;;;;;;;1.77;0.73;;;3.70;91.90;;;;;;5035798;28;20085;-81
2022/03/11 04:12:45;;;;;;;0.17;0.17;;;3.60;91.90;;;;;;5036215;28;20080;-81
2022/03/11 04:15:11;;;;;;;0.00;0.00;;;3.60;92.30;;;;;;5052867;28;20535;-81
2022/03/11 04:17:37;;;;;;;0.00;0.00;;;3.60;92.10;;;;;;5036340;28;20144;-81
2022/03/11 04:20:06;;;;;;;0.32;0.32;;;3.50;92.10;;;;;;5051871;28;20131;-81
2022/03/11 04:22:32;;;;;;;0.82;0.82;;;3.50;92.40;;;;;;5036269;28;20083;-81
2022/03/11 04:24:57;;;;;;;0.00;0.00;;;3.50;92.90;;;;;;5036121;28;20049;-81
2022/03/11 04:27:23;;;;;;;0.50;0.20;;;3.50;93.10;;;;;;5035910;28;20127;-81
2022/03/11 04:29:52;;;;;;;1.23;0.50;;;3.40;93.20;;;;;;5053235;28;20473;-81
2022/03/11 04:32:17;;;;;;;0.20;0.20;;;3.40;93.00;;;;;;5035674;28;20100;-81
2022/03/11 04:34:43;;;;;;;0.00;0.00;;;3.40;93.30;;;;;;5035764;28;20088;-81
2022/03/11 04:37:09;;;;;;;0.40;0.40;;;3.40;93.60;;;;;;5052421;28;20041;-81
2022/03/11 04:39:37;;;;;;;0.88;0.28;;;3.40;93.80;;;;;;5052326;28;20508;-81
2022/03/11 04:42:06;;;;;;;1.02;0.47;;;3.30;93.70;;;;;;5052555;28;20400;-81
2022/03/11 04:44:32;;;;;;;0.35;0.35;;;3.40;94.50;;;;;;5035687;28;20091;-81
2022/03/11 04:46:57;;;;;;;4.70;1.60;;;3.30;94.40;;;;;;5052279;28;20045;-81
2022/03/11 04:49:25;;;;;;;1.55;1.08;;;3.30;94.40;;;;;;5052387;28;20052;-81
2022/03/11 04:51:51;;;;;;;0.57;0.35;;;3.40;94.30;;;;;;5052890;28;20166;-81
2022/03/11 04:54:17;;;;;;;1.17;0.70;;;3.30;94.70;;;;;;5035967;28;20138;-81
2022/03/11 04:56:43;;;;;;;0.55;0.55;;;3.30;94.50;;;;;;5052145;28;20476;-81
2022/03/11 04:59:08;;;;;;;1.08;0.98;;;3.30;94.90;;;;;;5052025;28;20040;-81
2022/03/11 05:01:34;;;;;;;1.42;0.45;;;3.20;95.10;;;;;;5052223;28;20049;-81
2022/03/11 05:04:00;;;;;;;2.58;0.93;;;3.20;95.40;;;;;;5052884;28;20040;-81
2022/03/11 05:06:25;;;;;;;2.20;1.02;;;3.20;95.50;;;;;;5035321;28;20397;-81
2022/03/11 05:08:52;;;;;;;2.17;0.85;;;3.20;95.90;;;;;;5051801;28;20053;-81
2022/03/11 05:11:20;;;;;;;0.55;0.30;;;3.10;96.40;;;;;;5052212;28;20049;-81
2022/03/11 05:13:46;;;;;;;0.10;0.10;;;3.10;96.50;;;;;;5052260;28;20087;-81
2022/03/11 05:16:11;;;;;;;0.70;0.70;;;3.10;96.50;;;;;;5035234;28;20060;-81
2022/03/11 05:18:39;;;;;;;0.17;0.17;;;3.10;96.60;;;;;;5052454;28;20533;-81
2022/03/11 05:21:05;;;;;;;0.93;0.32;;;3.10;96.60;;;;;;5035496;28;20139;-81
2022/03/11 05:23:31;;;;;;;1.17;0.52;;;3.10;96.60;;;;;;5052515;28;20076;-81
2022/03/11 05:25:56;;;;;;;0.65;0.65;;;3.00;96.90;;;;;;5051786;28;20053;-81
2022/03/11 05:28:22;;;;;;;1.30;0.73;;;3.00;96.90;;;;;;5052166;28;20388;-81
2022/03/11 05:30:48;;;;;;;0.30;0.20;;;3.00;97.30;;;;;;5052879;28;20055;-81
2022/03/11 05:33:13;;;;;;;0.55;0.55;;;3.00;97.40;;;;;;5039020;28;20056;-81
2022/03/11 05:35:44;;;;;;;0.35;0.22;;;2.90;98.00;;;;;;5039439;28;20048;-81
2022/03/11 05:38:10;;;;;;;0.43;0.43;;;3.10;97.90;;;;;;5055689;28;20114;-81
2022/03/11 05:40:39;;;;;;;0.95;0.85;;;2.90;98.20;;;;;;5038956;28;20448;-81
2022/03/11 05:43:05;;;;;;;0.75;0.75;;;2.90;98.50;;;;;;5054775;28;20052;-81
2022/03/11 05:45:31;;;;;;;0.28;0.28;;;2.90;98.30;;;;;;5038850;28;20049;-81
2022/03/11 05:47:57;;;;;;;0.80;0.50;;;2.80;98.60;;;;;;5038896;28;20067;-81
2022/03/11 05:50:25;;;;;;;0.35;0.35;;;2.80;98.70;;;;;;5055514;28;20488;-82
2022/03/11 05:52:51;;;;;;;0.73;0.57;;;2.80;99.00;;;;;;5038727;28;20049;-81
2022/03/11 05:55:17;;;;;;;1.00;0.55;;;2.80;99.20;;;;;;5055044;28;20390;-81
2022/03/11 05:57:46;;;;;;;3.75;1.17;;;2.80;99.10;;;;;;5055135;28;20094;-82
2022/03/11 06:00:12;;;;;;;0.20;0.20;;;2.80;99.20;;;;;;5038625;28;20489;-81
2022/03/11 06:02:39;;;;;;;1.17;0.60;;;2.70;99.30;;;;;;5054756;28;20056;-81
2022/03/11 06:05:05;;;;;;;1.67;0.75;;;2.80;99.50;;;;;;5038708;28;20247;-81
2022/03/11 06:07:31;;;;;;;1.48;0.90;;;2.80;99.40;;;;;;5038077;28;20037;-81
2022/03/11 06:09:57;;;;;;;0.68;0.68;;;2.70;99.90;;;;;;5037783;28;20053;-81
2022/03/11 06:12:22;;;;;;;6.50;0.40;;;2.70;99.60;;;;;;5054948;28;20091;-81
2022/03/11 06:14:48;;;;;;;1.30;1.13;;;2.80;99.90;;;;;;5054980;28;20103;-81
2022/03/11 06:17:13;;;;;;;1.10;0.80;;;2.70;99.90;;;;;;5038491;28;20049;-81
2022/03/11 06:19:39;;;;;;;1.00;0.43;;;2.70;99.90;;;;;;5038149;28;20195;-81
2022/03/11 06:22:05;;;;;;;3.47;0.25;;;2.70;99.90;;;;;;5054957;28;20044;-81
2022/03/11 06:24:30;;;;;;;1.63;1.25;;;2.70;99.90;;;;;;5054554;28;20045;-81
2022/03/11 06:26:59;;;;;;;3.30;1.55;;;2.70;99.90;;;;;;5038242;28;20052;-81
2022/03/11 06:29:25;;;;;;;3.15;0.60;;;2.70;99.90;;;;;;5054455;28;20044;-81
2022/03/11 06:31:50;;;;;;;1.50;0.85;;;2.80;99.90;;;;;;5054346;28;20195;-81
2022/03/11 06:34:16;;;;;;;4.18;1.50;;;2.90;99.90;;;;;;5054630;28;20049;-81
2022/03/11 06:36:42;;;;;;;1.25;1.25;;;2.90;99.90;;;;;;5037756;28;20102;-81
2022/03/11 06:39:07;;;;;;;0.98;0.63;;;3.00;99.90;;;;;;5038058;28;20093;-81
2022/03/11 06:41:33;;;;;;;0.15;0.15;;;3.00;99.90;;;;;;5054219;28;20134;-81
2022/03/11 06:43:59;;;;;;;0.20;0.20;;;3.10;99.90;;;;;;5037682;28;20060;-81
2022/03/11 06:46:25;;;;;;;0.30;0.30;;;3.20;99.90;;;;;;5037652;28;20061;-81
2022/03/11 06:48:50;;;;;;;2.08;0.95;;;3.20;99.70;;;;;;5054195;28;20037;-81
2022/03/11 06:51:19;;;;;;;0.98;0.80;;;3.20;99.60;;;;;;5037672;28;20049;-81
2022/03/11 06:53:45;;;;;;;0.10;0.10;;;3.20;99.60;;;;;;5037544;28;20047;-81
2022/03/11 06:56:10;;;;;;;0.00;0.00;;;3.30;99.50;;;;;;5053638;28;20136;-81
2022/03/11 06:58:39;;;;;;;1.27;1.20;;;3.40;99.60;;;;;;5059150;28;20051;-81
2022/03/11 07:01:04;;;;;;;0.35;0.35;;;3.60;99.20;;;;;;5047028;28;20125;-81
2022/03/11 07:03:30;;;;;;;0.95;0.93;;;3.80;98.80;;;;;;5045622;28;20470;-81
2022/03/11 07:05:58;;;;;;;0.45;0.25;;;4.20;98.50;;;;;;5047551;28;20496;-81
2022/03/11 07:08:24;;;;;;;1.33;1.05;;;4.30;97.40;;;;;;5046144;28;20067;-82
2022/03/11 07:10:51;;;;;;;0.17;0.17;;;4.30;97.00;;;;;;5045982;28;20056;-81
2022/03/11 07:13:19;;;;;;;0.22;0.22;;;4.50;96.80;;;;;;5064783;28;20112;-82
2022/03/11 07:15:45;;;;;;;1.17;0.28;;;4.80;96.50;;;;;;5068756;28;20032;-81
2022/03/11 07:18:12;;;;;;;1.20;0.95;;;5.20;95.70;;;;;;5063979;28;20118;-81
2022/03/11 07:20:38;;;;;;;1.80;1.20;;;5.90;95.20;;;;;;5044451;28;20082;-81
2022/03/11 07:23:06;;;;;;;0.88;0.57;;;6.70;93.30;;;;;;5063270;28;20040;-81
2022/03/11 07:25:34;;;;;;;1.73;0.80;;;7.40;91.60;;;;;;5063863;28;20120;-81
2022/03/11 07:28:00;;;;;;;0.80;0.40;;;8.00;89.90;;;;;;5062251;28;20449;-82
2022/03/11 07:30:25;;;;;;;4.70;1.45;;;8.50;86.90;;;;;;5064437;28;20045;-80
2022/03/11 07:32:52;;;;;;;0.35;0.35;;;8.70;83.40;;;;;;5045427;28;20488;-80
2022/03/11 07:35:21;;;;;;;0.38;0.38;;;8.50;82.60;;;;;;5044325;28;20048;-81
2022/03/11 07:37:47;;;;;;;0.70;0.60;;;8.20;82.50;;;;;;5063626;28;20392;-81
2022/03/11 07:40:13;;;;;;;0.25;0.25;;;8.00;82.00;;;;;;5061699;28;20033;-81
2022/03/11 07:42:45;;;;;;;0.90;0.52;;;8.20;82.30;;;;;;5045831;28;20052;-81
2022/03/11 07:45:16;;;;;;;1.55;0.63;;;8.20;81.10;;;;;;5045785;28;20041;-82
2022/03/11 07:47:42;;;;;;;1.60;1.33;;;8.20;81.70;;;;;;5062445;28;20037;-81
2022/03/11 07:50:10;;;;;;;2.28;0.90;;;7.90;80.30;;;;;;5063566;28;20048;-81
2022/03/11 07:52:37;;;;;;;0.60;0.43;;;7.60;80.90;;;;;;5036394;28;20092;-81
2022/03/11 07:55:04;;;;;;;1.83;0.73;;;7.30;81.70;;;;;;5052645;28;20088;-81
2022/03/11 07:57:33;;;;;;;0.50;0.50;;;7.30;82.30;;;;;;5054660;28;20059;-81
2022/03/11 08:00:04;;;;;;;3.10;0.98;;;7.40;82.40;;;;;;5061369;28;20067;-81
2022/03/11 08:02:31;;;;;;;1.15;1.15;;;7.40;82.10;;;;;;5045792;28;20501;-81
2022/03/11 08:04:57;;;;;;;1.65;1.15;;;7.30;82.00;;;;;;5069697;28;20036;-81
2022/03/11 08:07:26;;;;;;;1.17;0.85;;;7.40;82.00;;;;;;5073072;28;20428;-81
2022/03/11 08:09:52;;;;;;;0.45;0.30;;;7.40;80.90;;;;;;5055720;28;20059;-83
2022/03/11 08:12:18;;;;;;;4.30;0.70;;;7.50;80.70;;;;;;5062635;28;20041;-81
2022/03/11 08:14:44;;;;;;;2.83;0.50;;;7.40;80.30;;;;;;5060293;28;20044;-81
2022/03/11 08:17:10;;;;;;;0.88;0.80;;;7.40;80.80;;;;;;5061324;28;20043;-82
2022/03/11 08:19:36;;;;;;;3.85;1.30;;;7.50;80.80;;;;;;5061679;28;20041;-82
2022/03/11 08:22:02;;;;;;;1.48;1.38;;;7.60;80.20;;;;;;5043324;28;20040;-82
2022/03/11 08:24:28;;;;;;;2.47;1.48;;;8.00;79.20;;;;;;5061474;28;20094;-82
2022/03/11 08:26:54;;;;;;;0.25;0.25;;;8.30;78.00;;;;;;5043964;28;20565;-82
2022/03/11 08:29:20;;;;;;;0.43;0.40;;;8.70;76.80;;;;;;5044155;28;20053;-81
2022/03/11 08:31:49;;;;;;;0.30;0.30;;;8.90;76.10;;;;;;5061854;28;20087;-81
2022/03/11 08:34:17;;;;;;;2.30;0.88;;;9.10;75.80;;;;;;5043944;28;20064;-81
2022/03/11 08:36:43;;;;;;;1.50;1.25;;;9.30;74.80;;;;;;5061036;28;20083;-81
2022/03/11 08:39:08;;;;;;;0.88;0.82;;;9.40;74.40;;;;;;5061166;28;20071;-81
2022/03/11 08:41:34;;;;;;;1.65;0.70;;;9.20;73.50;;;;;;5059913;28;20556;-81
2022/03/11 08:44:01;;;;;;;1.05;0.98;;;8.90;73.20;;;;;;5059973;28;20404;-82
2022/03/11 08:46:29;;;;;;;0.75;0.75;;;8.90;73.50;;;;;;5043992;28;20048;-81
2022/03/11 08:48:55;;;;;;;1.40;1.05;;;9.00;74.20;;;;;;5061215;28;20531;-83
2022/03/11 08:51:20;;;;;;;1.67;0.68;;;8.80;74.10;;;;;;5042844;28;20052;-83
2022/03/11 08:53:48;;;;;;;0.98;0.43;;;9.00;73.90;;;;;;5045088;28;20040;-82
2022/03/11 08:56:15;;;;;;;1.58;0.93;;;8.90;73.80;;;;;;5062547;28;20040;-82
2022/03/11 08:58:41;;;;;;;1.95;1.17;;;8.90;73.90;;;;;;5061976;28;20057;-82
2022/03/11 09:01:07;;;;;;;2.47;1.70;;;8.90;73.60;;;;;;5046102;28;20401;-81
2022/03/11 09:03:32;;;;;;;0.13;0.13;;;8.80;73.50;;;;;;5072518;28;20476;-82
2022/03/11 09:05:58;;;;;;;2.05;1.10;;;9.10;74.10;;;;;;5073233;28;20120;-81
2022/03/11 09:08:24;;;;;;;0.38;0.20;;;9.40;74.00;;;;;;5059404;28;20057;-81
2022/03/11 09:10:50;;;;;;;0.63;0.45;;;9.50;72.40;;;;;;5075864;28;20450;-81
2022/03/11 09:13:15;;;;;;;0.63;0.63;;;9.50;71.30;;;;;;5059320;28;20068;-81
2022/03/11 09:15:41;;;;;;;1.65;0.93;;;9.50;71.10;;;;;;5076029;28;20045;-81
2022/03/11 09:18:07;;;;;;;0.63;0.30;;;9.40;70.70;;;;;;5076009;28;20044;-82
2022/03/11 09:20:34;;;;;;;0.30;0.30;;;9.50;70.70;;;;;;5075785;28;20484;-81
2022/03/11 09:22:59;;;;;;;1.42;0.77;;;9.50;69.70;;;;;;5076463;28;20139;-81
2022/03/11 09:25:25;;;;;;;4.20;1.33;;;9.60;70.30;;;;;;5059216;28;20168;-81
2022/03/11 09:27:51;;;;;;;1.35;0.50;;;9.70;69.10;;;;;;5075912;28;20384;-81
2022/03/11 09:30:17;;;;;;;2.28;0.95;;;9.60;69.00;;;;;;5075815;28;20048;-81
2022/03/11 09:32:45;;;;;;;0.73;0.73;;;9.60;69.30;;;;;;5059605;28;20052;-81
2022/03/11 09:35:12;;;;;;;0.32;0.13;;;9.80;69.20;;;;;;5058652;28;20140;-86
2022/03/11 09:37:41;;;;;;;2.95;0.73;;;10.00;69.30;;;;;;5047879;28;20049;-83
2022/03/11 09:40:10;;;;;;;1.55;0.93;;;10.40;68.30;;;;;;5047705;28;20131;-84
2022/03/11 09:42:38;;;;;;;0.30;0.30;;;10.60;68.30;;;;;;5052490;28;20052;-83
2022/03/11 09:45:05;;;;;;;2.10;0.75;;;10.60;66.40;;;;;;5075400;28;20400;-81
2022/03/11 09:47:31;;;;;;;2.83;1.33;;;10.70;66.20;;;;;;5058954;28;20068;-81
2022/03/11 09:49:57;;;;;;;1.85;0.30;;;10.80;66.70;;;;;;5059118;28;20070;-81
2022/03/11 09:52:25;;;;;;;2.78;1.55;;;11.00;66.10;;;;;;5063653;28;20048;-81
2022/03/11 09:54:51;;;;;;;3.53;3.20;;;11.20;66.10;;;;;;5038639;28;20118;-81
2022/03/11 09:57:24;;;;;;;1.15;1.05;;;11.30;64.90;;;;;;5054842;28;20047;-81
2022/03/11 09:59:50;;;;;;;1.15;0.75;;;11.30;63.00;;;;;;5038501;28;20049;-81
2022/03/11 10:02:17;;;;;;;1.60;0.63;;;11.30;63.60;;;;;;5055337;28;20052;-81
2022/03/11 10:04:52;;;;;;;0.35;0.35;;;11.30;62.40;;;;;;5038847;28;20079;-81
2022/03/11 10:07:25;;;;;;;0.20;0.20;;;11.30;61.90;;;;;;5038322;28;20044;-81
2022/03/11 10:09:52;;;;;;;0.43;0.38;;;11.70;61.40;;;;;;5054729;28;20057;-81
2022/03/11 10:12:26;;;;;;;0.55;0.55;;;11.70;60.40;;;;;;5038508;28;20132;-81
2022/03/11 10:15:01;;;;;;;1.75;0.57;;;11.90;60.40;;;;;;5038477;28;20051;-81
2022/03/11 10:17:35;;;;;;;1.85;0.73;;;11.90;59.80;;;;;;5054567;28;20048;-81
2022/03/11 10:20:04;;;;;;;0.40;0.30;;;11.80;58.40;;;;;;5054977;28;20373;-81
2022/03/11 10:22:34;;;;;;;1.75;0.95;;;11.90;58.40;;;;;;5054811;28;20415;-81
2022/03/11 10:25:09;;;;;;;7.72;1.45;;;11.80;57.60;;;;;;5038421;28;20128;-81
2022/03/11 10:27:53;;;;;;;0.40;0.10;;;11.90;57.90;;;;;;5054600;28;20131;-81
2022/03/11 10:30:19;;;;;;;0.10;0.10;;;11.80;57.80;;;;;;5037992;28;20049;-81
2022/03/11 10:32:52;;;;;;;2.58;1.42;;;11.90;57.70;;;;;;5054792;28;20102;-81
2022/03/11 10:35:18;;;;;;;1.65;0.52;;;12.20;58.20;;;;;;5054678;28;20041;-81
2022/03/11 10:37:59;;;;;;;0.52;0.50;;;12.20;56.70;;;;;;5038730;28;20063;-81
2022/03/11 10:40:25;;;;;;;5.50;1.27;;;12.50;57.20;;;;;;5054098;28;20044;-80
2022/03/11 10:43:18;;;;;;;1.88;1.33;;;12.40;55.60;;;;;;5054433;28;20056;-80
2022/03/11 10:46:09;;;;;;;3.53;1.42;;;12.10;56.10;;;;;;5054614;28;20049;-80
2022/03/11 10:48:54;;;;;;;0.68;0.65;;;12.10;55.60;;;;;;5037773;28;20048;-80
2022/03/11 10:51:32;;;;;;;0.32;0.32;;;12.40;56.50;;;;;;5037671;28;20463;-80
2022/03/11 10:54:00;;;;;;;2.03;0.57;;;12.40;55.80;;;;;;5037972;28;20056;-80
2022/03/11 10:56:35;;;;;;;1.63;1.20;;;12.40;55.60;;;;;;5037544;28;20082;-80
2022/03/11 10:59:23;;;;;;;0.93;0.93;;;12.40;54.60;;;;;;5054338;28;20056;-80
2022/03/11 11:01:52;;;;;;;0.82;0.82;;;12.30;54.30;;;;;;5054130;28;20045;-80
2022/03/11 11:04:18;;;;;;;1.27;0.30;;;12.40;55.50;;;;;;5054508;28;20059;-80
2022/03/11 11:06:45;;;;;;;0.82;0.80;;;12.40;54.30;;;;;;5037288;28;20071;-80
2022/03/11 11:09:15;;;;;;;0.82;0.82;;;12.50;54.80;;;;;;5036981;28;20048;-80
2022/03/11 11:11:42;;;;;;;3.42;1.23;;;12.60;55.30;;;;;;5037503;28;20142;-80
2022/03/11 11:14:10;;;;;;;0.65;0.65;;;12.90;55.10;;;;;;5053995;28;20059;-80
2022/03/11 11:16:41;;;;;;;1.25;1.15;;;12.90;54.00;;;;;;5037430;28;20382;-80
2022/03/11 11:19:12;;;;;;;0.30;0.30;;;12.90;53.30;;;;;;5053676;28;20076;-80
2022/03/11 11:21:40;;;;;;;0.60;0.60;;;12.70;53.40;;;;;;5054044;28;20087;-80
2022/03/11 11:24:13;;;;;;;1.92;1.73;;;12.70;53.50;;;;;;5037172;28;20053;-80
2022/03/11 11:26:40;;;;;;;0.38;0.38;;;12.80;53.40;;;;;;5053805;28;20091;-80
2022/03/11 11:29:15;;;;;;;1.70;1.38;;;13.00;54.00;;;;;;5036079;28;20115;-80
2022/03/11 11:31:43;;;;;;;1.67;1.55;;;13.10;53.30;;;;;;5037033;28;20148;-80
2022/03/11 11:34:30;;;;;;;0.98;0.65;;;13.10;52.70;;;;;;5037479;28;20472;-80
2022/03/11 11:36:56;;;;;;;0.63;0.63;;;13.20;52.60;;;;;;5053839;28;20044;-80
2022/03/11 11:39:34;;;;;;;1.27;0.70;;;13.10;51.90;;;;;;5053441;28;20439;-80
2022/03/11 11:42:07;;;;;;;0.40;0.40;;;12.90;52.60;;;;;;5053761;28;20084;-80
2022/03/11 11:44:41;;;;;;;1.00;0.90;;;13.20;52.80;;;;;;5054006;28;20051;-80
2022/03/11 11:47:16;;;;;;;0.63;0.50;;;13.30;52.10;;;;;;5053578;28;20053;-80
2022/03/11 11:49:52;;;;;;;1.40;1.30;;;13.20;52.20;;;;;;5053388;28;20053;-80
2022/03/11 11:52:36;;;;;;;2.63;0.63;;;13.10;50.80;;;;;;5053639;28;20484;-80
2022/03/11 11:55:21;;;;;;;1.23;0.85;;;13.40;52.50;;;;;;5037130;28;20048;-79
2022/03/11 11:57:50;;;;;;;0.73;0.73;;;13.60;52.30;;;;;;5053242;28;20439;-80
2022/03/11 12:00:37;;;;;;;3.25;0.85;;;13.60;51.10;;;;;;5052812;28;20124;-80
2022/03/11 12:03:05;;;;;;;6.32;1.70;;;13.60;51.40;;;;;;5053265;28;20044;-80
2022/03/11 12:05:48;;;;;;;1.52;0.95;;;13.60;50.40;;;;;;5036501;28;20545;-80
2022/03/11 12:08:39;;;;;;;1.20;0.40;;;13.70;50.30;;;;;;5052929;28;20045;-80
2022/03/11 12:11:06;;;;;;;0.10;0.10;;;13.70;50.70;;;;;;5052457;28;20061;-80
2022/03/11 12:13:35;;;;;;;1.13;0.85;;;13.70;50.60;;;;;;5053452;28;20132;-80
2022/03/11 12:16:21;;;;;;;2.63;1.85;;;13.70;50.70;;;;;;5052944;28;20132;-80
2022/03/11 12:18:49;;;;;;;5.13;0.60;;;13.80;50.80;;;;;;5052917;28;20053;-80
2022/03/11 12:21:40;;;;;;;1.27;0.45;;;13.80;50.00;;;;;;5052639;28;20049;-79
2022/03/11 12:24:33;;;;;;;0.38;0.38;;;13.90;50.30;;;;;;5052908;28;20037;-79
2022/03/11 12:27:00;;;;;;;4.32;1.70;;;13.80;49.80;;;;;;5052633;28;20055;-79
2022/03/11 12:29:36;;;;;;;1.77;1.23;;;14.10;50.20;;;;;;5035980;28;20056;-79
2022/03/11 12:32:07;;;;;;;0.60;0.32;;;14.50;50.40;;;;;;5036253;28;20080;-79
2022/03/11 12:34:32;;;;;;;3.30;1.02;;;14.70;48.90;;;;;;5052798;28;20054;-79
2022/03/11 12:37:01;;;;;;;1.42;1.08;;;15.00;49.10;;;;;;5052501;28;20040;-81
2022/03/11 12:39:30;;;;;;;5.65;1.42;;;15.00;48.40;;;;;;5052239;28;20048;-81
2022/03/11 12:41:56;;;;;;;0.63;0.30;;;15.20;49.10;;;;;;5035827;28;20048;-81
2022/03/11 12:44:21;;;;;;;2.13;1.02;;;15.20;48.40;;;;;;5036671;28;20076;-80
2022/03/11 12:46:48;;;;;;;0.73;0.52;;;15.00;47.30;;;;;;5052439;28;20079;-81
2022/03/11 12:49:27;;;;;;;0.60;0.40;;;15.20;48.40;;;;;;5052584;28;20049;-81
2022/03/11 12:51:53;;;;;;;1.58;0.90;;;15.10;48.00;;;;;;5052564;28;20043;-81
2022/03/11 12:54:20;;;;;;;6.85;1.67;;;15.10;47.10;;;;;;5052038;28;20053;-80
2022/03/11 12:56:46;;;;;;;1.15;0.40;;;14.80;46.20;;;;;;5052357;28;20063;-80
2022/03/11 12:59:11;;;;;;;0.65;0.52;;;14.70;47.30;;;;;;5052276;28;20045;-81